Time;durP1;ratioP1;P1;durP2;ratioP2;P2;SDS_P1;SDS_P2;PMS_P1;PMS_P2;Temp;Humidity;BMP_temperature;BMP_pressure;BME280_temperature;BME280_humidity;BME280_pressure;Samples;Min_cycle;Max_cycle;Signal;HPM_P1;HPM_P2
2023/09/10 00:00:21;;;;;;;0.10;0.10;;;;;;;;;;5100030;28;20406;-45
2023/09/10 00:02:47;;;;;;;0.10;0.10;;;;;;;;;;5100362;28;20044;-45
2023/09/10 00:05:12;;;;;;;0.10;0.10;;;;;;;;;;5100136;28;20527;-43
2023/09/10 00:07:38;;;;;;;0.10;0.10;;;;;;;;;;5099506;28;20070;-42
2023/09/10 00:10:04;;;;;;;0.10;0.10;;;;;;;;;;5099898;28;20423;-46
2023/09/10 00:12:30;;;;;;;0.10;0.10;;;;;;;;;;5099294;28;20455;-42
2023/09/10 00:14:55;;;;;;;0.10;0.10;;;;;;;;;;5100008;28;20079;-44
2023/09/10 00:17:21;;;;;;;0.10;0.10;;;;;;;;;;5099294;28;20052;-43
2023/09/10 00:19:46;;;;;;;0.10;0.10;;;;;;;;;;5099639;28;20047;-43
2023/09/10 00:22:12;;;;;;;0.10;0.10;;;;;;;;;;5099524;28;20047;-43
2023/09/10 00:24:37;;;;;;;0.10;0.10;;;;;;;;;;5099268;28;20452;-44
2023/09/10 00:27:03;;;;;;;0.10;0.10;;;;;;;;;;5093275;27;20048;-45
2023/09/10 00:29:28;;;;;;;0.20;0.20;;;;;;;;;;5097097;28;20463;-47
2023/09/10 00:31:54;;;;;;;0.20;0.20;;;;;;;;;;5115011;28;20699;-46
2023/09/10 00:34:20;;;;;;;0.10;0.10;;;;;;;;;;5120131;28;20378;-42
2023/09/10 00:36:45;;;;;;;0.10;0.10;;;;;;;;;;5101288;28;20410;-41
2023/09/10 00:39:11;;;;;;;0.10;0.10;;;;;;;;;;5099038;28;20415;-45
2023/09/10 00:41:36;;;;;;;0.10;0.10;;;;;;;;;;5098454;28;20048;-42
2023/09/10 00:44:02;;;;;;;0.10;0.10;;;;;;;;;;5098753;28;20048;-43
2023/09/10 00:46:28;;;;;;;0.10;0.10;;;;;;;;;;5099379;28;20073;-45
2023/09/10 00:48:54;;;;;;;0.10;0.10;;;;;;;;;;5099043;28;20079;-44
2023/09/10 00:51:20;;;;;;;0.10;0.10;;;;;;;;;;5099223;28;20126;-44
2023/09/10 00:53:45;;;;;;;0.10;0.10;;;;;;;;;;5099048;28;20237;-44
2023/09/10 00:56:11;;;;;;;0.15;0.15;;;;;;;;;;5098030;28;20054;-44
2023/09/10 00:58:37;;;;;;;0.20;0.20;;;;;;;;;;5098380;28;20074;-43
2023/09/10 01:01:03;;;;;;;0.10;0.10;;;;;;;;;;5099296;28;20450;-43
2023/09/10 01:03:30;;;;;;;0.10;0.10;;;;;;;;;;5099092;28;20048;-45
2023/09/10 01:05:56;;;;;;;0.10;0.10;;;;;;;;;;5080853;28;20052;-41
2023/09/10 01:08:21;;;;;;;0.10;0.10;;;;;;;;;;5098826;28;20059;-45
2023/09/10 01:10:52;;;;;;;0.10;0.10;;;;;;;;;;5098643;28;20143;-44
2023/09/10 01:13:38;;;;;;;0.10;0.10;;;;;;;;;;5079638;28;20047;-44
2023/09/10 01:16:07;;;;;;;0.10;0.10;;;;;;;;;;5098003;28;20040;-44
2023/09/10 01:18:40;;;;;;;0.10;0.10;;;;;;;;;;5079139;28;20039;-43
2023/09/10 01:21:19;;;;;;;0.10;0.10;;;;;;;;;;5098281;28;20062;-45
2023/09/10 01:24:04;;;;;;;0.10;0.10;;;;;;;;;;5098567;28;20445;-46
2023/09/10 01:26:30;;;;;;;0.20;0.20;;;;;;;;;;5083031;28;20075;-44
2023/09/10 01:28:55;;;;;;;0.10;0.10;;;;;;;;;;5098141;28;20051;-45
2023/09/10 01:31:21;;;;;;;0.10;0.10;;;;;;;;;;5087336;28;20163;-45
2023/09/10 01:33:51;;;;;;;0.10;0.10;;;;;;;;;;5078003;28;20512;-42
2023/09/10 01:36:36;;;;;;;0.10;0.10;;;;;;;;;;5077668;28;20051;-44
2023/09/10 01:39:12;;;;;;;0.10;0.10;;;;;;;;;;5095547;28;20043;-44
2023/09/10 01:41:38;;;;;;;0.10;0.10;;;;;;;;;;5097840;28;20054;-45
2023/09/10 01:44:04;;;;;;;0.10;0.10;;;;;;;;;;5097958;28;20077;-47
2023/09/10 01:46:31;;;;;;;0.10;0.10;;;;;;;;;;5098048;28;20056;-43
2023/09/10 01:48:57;;;;;;;0.10;0.10;;;;;;;;;;5097293;28;20470;-46
2023/09/10 01:51:22;;;;;;;0.10;0.10;;;;;;;;;;5097702;28;20788;-47
2023/09/10 01:53:48;;;;;;;0.10;0.10;;;;;;;;;;5097420;28;20138;-44
2023/09/10 01:56:13;;;;;;;0.10;0.10;;;;;;;;;;5097466;28;20396;-45
2023/09/10 01:58:39;;;;;;;0.10;0.10;;;;;;;;;;5098566;28;20588;-47
2023/09/10 02:01:06;;;;;;;0.30;0.30;;;;;;;;;;5098043;28;20073;-46
2023/09/10 02:03:31;;;;;;;0.10;0.10;;;;;;;;;;5097828;28;20104;-43
2023/09/10 02:05:58;;;;;;;0.15;0.15;;;;;;;;;;5097537;28;20142;-42
2023/09/10 02:08:24;;;;;;;0.10;0.10;;;;;;;;;;5087793;28;20045;-44
2023/09/10 02:10:50;;;;;;;0.10;0.10;;;;;;;;;;5077266;28;20052;-46
2023/09/10 02:13:15;;;;;;;0.10;0.10;;;;;;;;;;5077160;28;20138;-46
2023/09/10 02:15:41;;;;;;;0.10;0.10;;;;;;;;;;5076856;28;20484;-42
2023/09/10 02:18:06;;;;;;;0.10;0.10;;;;;;;;;;5076427;28;20081;-45
2023/09/10 02:20:34;;;;;;;0.10;0.10;;;;;;;;;;5077572;28;20472;-44
2023/09/10 02:22:59;;;;;;;0.10;0.10;;;;;;;;;;5076465;28;20484;-44
2023/09/10 02:25:25;;;;;;;0.10;0.10;;;;;;;;;;5077123;28;20055;-43
2023/09/10 02:27:50;;;;;;;0.20;0.20;;;;;;;;;;5081011;27;20059;-44
2023/09/10 02:30:16;;;;;;;0.10;0.10;;;;;;;;;;5098595;28;20464;-45
2023/09/10 02:32:42;;;;;;;0.10;0.10;;;;;;;;;;5117510;28;20134;-46
2023/09/10 02:35:07;;;;;;;0.38;0.38;;;;;;;;;;5116980;28;20051;-46
2023/09/10 02:37:33;;;;;;;0.10;0.10;;;;;;;;;;5111733;28;20039;-45
2023/09/10 02:39:59;;;;;;;0.20;0.20;;;;;;;;;;5090947;28;20044;-42
2023/09/10 02:42:24;;;;;;;0.10;0.10;;;;;;;;;;5097122;28;20576;-45
2023/09/10 02:44:50;;;;;;;0.10;0.10;;;;;;;;;;5097080;28;20052;-43
2023/09/10 02:47:15;;;;;;;0.10;0.10;;;;;;;;;;5097646;28;20055;-44
2023/09/10 02:49:41;;;;;;;0.10;0.10;;;;;;;;;;5096790;28;20138;-46
2023/09/10 02:52:06;;;;;;;0.10;0.10;;;;;;;;;;5097595;28;20415;-44
2023/09/10 02:54:33;;;;;;;0.10;0.10;;;;;;;;;;5097615;28;20059;-43
2023/09/10 02:56:59;;;;;;;0.10;0.10;;;;;;;;;;5095631;28;20040;-45
2023/09/10 02:59:25;;;;;;;0.10;0.10;;;;;;;;;;5093247;28;20054;-45
2023/09/10 03:01:51;;;;;;;0.10;0.10;;;;;;;;;;5097151;28;20052;-44
2023/09/10 03:04:17;;;;;;;0.10;0.10;;;;;;;;;;5097558;28;20138;-44
2023/09/10 03:06:44;;;;;;;0.10;0.10;;;;;;;;;;5097042;28;20127;-43
2023/09/10 03:09:11;;;;;;;0.10;0.10;;;;;;;;;;5096835;28;20051;-44
2023/09/10 03:11:38;;;;;;;0.10;0.10;;;;;;;;;;5096574;28;20047;-44
2023/09/10 03:14:05;;;;;;;0.10;0.10;;;;;;;;;;5097359;28;20039;-44
2023/09/10 03:16:32;;;;;;;0.10;0.10;;;;;;;;;;5097160;28;20062;-45
2023/09/10 03:18:57;;;;;;;0.10;0.10;;;;;;;;;;5096865;28;20063;-42
2023/09/10 03:21:23;;;;;;;0.10;0.10;;;;;;;;;;5096656;28;20043;-43
2023/09/10 03:23:48;;;;;;;0.10;0.10;;;;;;;;;;5096343;28;20097;-44
2023/09/10 03:26:14;;;;;;;0.10;0.10;;;;;;;;;;5096804;28;20069;-43
2023/09/10 03:28:41;;;;;;;0.13;0.13;;;;;;;;;;5095918;28;20197;-46
2023/09/10 03:31:07;;;;;;;0.10;0.10;;;;;;;;;;5081199;28;20125;-42
2023/09/10 03:33:32;;;;;;;0.10;0.10;;;;;;;;;;5076538;28;20451;-43
2023/09/10 03:35:58;;;;;;;0.10;0.10;;;;;;;;;;5076316;28;20052;-43
2023/09/10 03:38:24;;;;;;;0.17;0.17;;;;;;;;;;5085576;28;20043;-42
2023/09/10 03:40:49;;;;;;;0.10;0.10;;;;;;;;;;5096372;28;20039;-45
2023/09/10 03:43:16;;;;;;;0.10;0.10;;;;;;;;;;5096073;28;20134;-45
2023/09/10 03:45:41;;;;;;;0.10;0.10;;;;;;;;;;5096288;28;20531;-44
2023/09/10 03:48:07;;;;;;;0.10;0.10;;;;;;;;;;5088969;28;20043;-44
2023/09/10 03:50:32;;;;;;;0.10;0.10;;;;;;;;;;5076263;28;20079;-46
2023/09/10 03:52:58;;;;;;;0.10;0.10;;;;;;;;;;5076023;28;20054;-45
2023/09/10 03:55:23;;;;;;;0.10;0.10;;;;;;;;;;5076328;28;20052;-44
2023/09/10 03:57:49;;;;;;;0.10;0.10;;;;;;;;;;5083547;28;20414;-43
2023/09/10 04:00:15;;;;;;;0.20;0.20;;;;;;;;;;5075942;28;20040;-47
2023/09/10 04:02:40;;;;;;;0.10;0.10;;;;;;;;;;5095015;28;20470;-43
2023/09/10 04:05:06;;;;;;;0.10;0.10;;;;;;;;;;5096015;28;20055;-43
2023/09/10 04:07:32;;;;;;;0.10;0.10;;;;;;;;;;5095174;28;20589;-44
2023/09/10 04:09:57;;;;;;;0.10;0.10;;;;;;;;;;5096459;28;20145;-43
2023/09/10 04:12:22;;;;;;;0.10;0.10;;;;;;;;;;5099572;28;20249;-45
2023/09/10 04:14:48;;;;;;;0.10;0.10;;;;;;;;;;5100289;28;20578;-45
2023/09/10 04:17:17;;;;;;;0.10;0.10;;;;;;;;;;5099353;28;20494;-46
2023/09/10 04:19:43;;;;;;;0.10;0.10;;;;;;;;;;5098791;28;20044;-43
2023/09/10 04:22:08;;;;;;;0.10;0.10;;;;;;;;;;5099098;28;20540;-43
2023/09/10 04:24:34;;;;;;;0.10;0.10;;;;;;;;;;5099153;28;20126;-44
2023/09/10 04:27:00;;;;;;;0.10;0.10;;;;;;;;;;5092642;28;20416;-43
2023/09/10 04:29:25;;;;;;;0.10;0.10;;;;;;;;;;5096296;28;20053;-44
2023/09/10 04:31:51;;;;;;;0.10;0.10;;;;;;;;;;5113789;28;20062;-43
2023/09/10 04:34:16;;;;;;;0.10;0.10;;;;;;;;;;5119140;28;20053;-45
2023/09/10 04:36:42;;;;;;;0.10;0.10;;;;;;;;;;5119190;28;20985;-43
2023/09/10 04:39:08;;;;;;;0.25;0.25;;;;;;;;;;5087262;28;20056;-45
2023/09/10 04:41:35;;;;;;;0.13;0.13;;;;;;;;;;5077910;28;20400;-44
2023/09/10 04:44:00;;;;;;;0.13;0.13;;;;;;;;;;5095950;28;20079;-44
2023/09/10 04:46:27;;;;;;;0.10;0.10;;;;;;;;;;5098892;28;20075;-44
2023/09/10 04:48:53;;;;;;;0.10;0.10;;;;;;;;;;5096540;28;20196;-44
2023/09/10 04:51:18;;;;;;;0.25;0.20;;;;;;;;;;5098502;28;20043;-43
2023/09/10 04:53:44;;;;;;;0.10;0.10;;;;;;;;;;5098700;28;20480;-44
2023/09/10 04:56:10;;;;;;;0.10;0.10;;;;;;;;;;5098677;28;20252;-42
2023/09/10 04:58:36;;;;;;;0.10;0.10;;;;;;;;;;5094418;28;20506;-45
2023/09/10 05:01:02;;;;;;;0.10;0.10;;;;;;;;;;5098636;28;20080;-43
2023/09/10 05:03:27;;;;;;;0.10;0.10;;;;;;;;;;5082487;28;20543;-45
2023/09/10 05:05:56;;;;;;;0.10;0.10;;;;;;;;;;5098568;28;20521;-43
2023/09/10 05:08:22;;;;;;;0.10;0.10;;;;;;;;;;5088991;28;20080;-47
2023/09/10 05:10:48;;;;;;;0.10;0.10;;;;;;;;;;5078750;28;20048;-45
2023/09/10 05:13:14;;;;;;;0.10;0.10;;;;;;;;;;5078554;28;20070;-44
2023/09/10 05:15:39;;;;;;;0.10;0.10;;;;;;;;;;5078774;28;20409;-43
2023/09/10 05:18:05;;;;;;;0.10;0.10;;;;;;;;;;5060290;28;20504;-44
2023/09/10 05:20:31;;;;;;;0.20;0.20;;;;;;;;;;5078764;28;20078;-43
2023/09/10 05:22:57;;;;;;;0.47;0.40;;;;;;;;;;5077722;28;20051;-44
2023/09/10 05:25:23;;;;;;;0.10;0.10;;;;;;;;;;5078467;28;20066;-44
2023/09/10 05:27:48;;;;;;;0.10;0.10;;;;;;;;;;5090124;28;20205;-43
2023/09/10 05:30:14;;;;;;;0.10;0.10;;;;;;;;;;5096458;28;20051;-43
2023/09/10 05:32:39;;;;;;;0.15;0.15;;;;;;;;;;5077538;28;20048;-44
2023/09/10 05:35:05;;;;;;;0.10;0.10;;;;;;;;;;5077797;28;20462;-44
2023/09/10 05:37:31;;;;;;;0.10;0.10;;;;;;;;;;5079107;28;20625;-44
2023/09/10 05:39:56;;;;;;;0.10;0.10;;;;;;;;;;5097918;28;20078;-44
2023/09/10 05:42:22;;;;;;;0.10;0.10;;;;;;;;;;5098069;28;20049;-44
2023/09/10 05:44:52;;;;;;;0.10;0.10;;;;;;;;;;5097863;28;20055;-45
2023/09/10 05:47:19;;;;;;;0.10;0.10;;;;;;;;;;5097406;28;20134;-43
2023/09/10 05:49:47;;;;;;;0.10;0.10;;;;;;;;;;5097347;28;20043;-44
2023/09/10 05:52:13;;;;;;;0.10;0.10;;;;;;;;;;5097900;28;20066;-43
2023/09/10 05:54:38;;;;;;;0.10;0.10;;;;;;;;;;5097579;28;20435;-46
2023/09/10 05:57:04;;;;;;;0.10;0.10;;;;;;;;;;5099894;28;20043;-44
2023/09/10 05:59:29;;;;;;;0.20;0.20;;;;;;;;;;5080378;28;20492;-46
2023/09/10 06:01:55;;;;;;;0.20;0.20;;;;;;;;;;5077437;28;20101;-46
2023/09/10 06:04:21;;;;;;;0.10;0.10;;;;;;;;;;5080372;28;20496;-44
2023/09/10 06:06:47;;;;;;;0.10;0.10;;;;;;;;;;5096972;28;20488;-47
2023/09/10 06:09:12;;;;;;;0.10;0.10;;;;;;;;;;5096825;28;20407;-44
2023/09/10 06:11:38;;;;;;;0.10;0.10;;;;;;;;;;5097316;28;20043;-45
2023/09/10 06:14:03;;;;;;;0.10;0.10;;;;;;;;;;5097915;28;20043;-45
2023/09/10 06:16:29;;;;;;;0.10;0.10;;;;;;;;;;5098012;28;20044;-45
2023/09/10 06:18:54;;;;;;;0.10;0.10;;;;;;;;;;5097879;28;20055;-47
2023/09/10 06:21:20;;;;;;;0.10;0.10;;;;;;;;;;5097590;28;20377;-45
2023/09/10 06:23:45;;;;;;;0.10;0.10;;;;;;;;;;5098304;28;20075;-43
2023/09/10 06:26:12;;;;;;;0.10;0.10;;;;;;;;;;5097686;28;20047;-44
2023/09/10 06:28:38;;;;;;;0.10;0.10;;;;;;;;;;5089125;27;20047;-46
2023/09/10 06:31:06;;;;;;;0.10;0.10;;;;;;;;;;5106573;28;20522;-46
2023/09/10 06:33:33;;;;;;;0.10;0.10;;;;;;;;;;5117910;27;20423;-45
2023/09/10 06:35:58;;;;;;;0.10;0.10;;;;;;;;;;5117850;28;20043;-46
2023/09/10 06:38:24;;;;;;;0.10;0.10;;;;;;;;;;5098951;28;20615;-44
2023/09/10 06:40:51;;;;;;;0.10;0.10;;;;;;;;;;5076811;28;20052;-43
2023/09/10 06:43:16;;;;;;;0.20;0.20;;;;;;;;;;5075997;28;20044;-44
2023/09/10 06:45:43;;;;;;;0.10;0.10;;;;;;;;;;5080912;28;20392;-43
2023/09/10 06:48:09;;;;;;;0.10;0.10;;;;;;;;;;5096755;28;20676;-43
2023/09/10 06:50:34;;;;;;;0.10;0.10;;;;;;;;;;5097060;28;20145;-43
2023/09/10 06:53:00;;;;;;;0.17;0.17;;;;;;;;;;5097117;28;20572;-43
2023/09/10 06:55:26;;;;;;;0.10;0.10;;;;;;;;;;5097125;28;20043;-45
2023/09/10 06:57:51;;;;;;;0.20;0.20;;;;;;;;;;5092518;28;20055;-45
2023/09/10 07:00:17;;;;;;;0.13;0.13;;;;;;;;;;5096715;28;20604;-42
2023/09/10 07:02:42;;;;;;;0.10;0.10;;;;;;;;;;5096009;28;20142;-47
2023/09/10 07:05:09;;;;;;;0.10;0.10;;;;;;;;;;5096657;28;20454;-46
2023/09/10 07:07:35;;;;;;;0.10;0.10;;;;;;;;;;5095203;28;20134;-43
2023/09/10 07:10:01;;;;;;;0.10;0.10;;;;;;;;;;5096144;28;20040;-42
2023/09/10 07:12:27;;;;;;;0.10;0.10;;;;;;;;;;5095890;28;20465;-44
2023/09/10 07:14:52;;;;;;;0.17;0.17;;;;;;;;;;5096515;28;20368;-46
2023/09/10 07:17:18;;;;;;;0.13;0.13;;;;;;;;;;5096012;28;20056;-42
2023/09/10 07:19:43;;;;;;;0.10;0.10;;;;;;;;;;5096829;28;20139;-44
2023/09/10 07:22:09;;;;;;;0.10;0.10;;;;;;;;;;5096429;28;20309;-44
2023/09/10 07:24:34;;;;;;;0.10;0.10;;;;;;;;;;5096237;28;20151;-45
2023/09/10 07:27:01;;;;;;;0.30;0.30;;;;;;;;;;5096232;28;20459;-44
2023/09/10 07:29:27;;;;;;;0.10;0.10;;;;;;;;;;5096045;28;20085;-44
2023/09/10 07:31:53;;;;;;;0.10;0.10;;;;;;;;;;5081142;28;20087;-46
2023/09/10 07:34:19;;;;;;;0.10;0.10;;;;;;;;;;5075712;28;20214;-45
2023/09/10 07:36:45;;;;;;;0.10;0.10;;;;;;;;;;5075586;28;20048;-43
2023/09/10 07:39:11;;;;;;;0.10;0.10;;;;;;;;;;5091773;28;20144;-45
2023/09/10 07:41:37;;;;;;;0.10;0.10;;;;;;;;;;5095579;28;20495;-44
2023/09/10 07:44:02;;;;;;;0.10;0.10;;;;;;;;;;5096211;28;20043;-43
2023/09/10 07:46:29;;;;;;;0.10;0.10;;;;;;;;;;5098045;28;20079;-46
2023/09/10 07:48:54;;;;;;;0.10;0.10;;;;;;;;;;5098778;28;20128;-42
2023/09/10 07:51:20;;;;;;;0.10;0.10;;;;;;;;;;5099700;28;20361;-45
2023/09/10 07:53:45;;;;;;;0.10;0.10;;;;;;;;;;5099302;28;20052;-42
2023/09/10 07:56:11;;;;;;;0.10;0.10;;;;;;;;;;5099852;28;20052;-46
2023/09/10 07:58:36;;;;;;;0.10;0.10;;;;;;;;;;5099177;28;20085;-43
2023/09/10 08:01:03;;;;;;;0.20;0.20;;;;;;;;;;5099400;28;20673;-44
2023/09/10 08:03:29;;;;;;;0.10;0.10;;;;;;;;;;5099940;28;20040;-45
2023/09/10 08:05:55;;;;;;;0.10;0.10;;;;;;;;;;5099523;28;20074;-43
2023/09/10 08:08:20;;;;;;;0.10;0.10;;;;;;;;;;5083612;28;20044;-44
2023/09/10 08:10:46;;;;;;;0.10;0.10;;;;;;;;;;5099414;28;20044;-43
2023/09/10 08:13:12;;;;;;;0.20;0.20;;;;;;;;;;5099261;28;20434;-42
2023/09/10 08:15:38;;;;;;;0.10;0.10;;;;;;;;;;5099780;28;20128;-42
2023/09/10 08:18:08;;;;;;;0.10;0.10;;;;;;;;;;5092704;28;20040;-43
2023/09/10 08:20:34;;;;;;;0.10;0.10;;;;;;;;;;5079391;28;20051;-44
2023/09/10 08:22:59;;;;;;;0.10;0.10;;;;;;;;;;5079195;28;20043;-44
2023/09/10 08:25:25;;;;;;;0.10;0.10;;;;;;;;;;5079736;28;20044;-43
2023/09/10 08:27:51;;;;;;;0.10;0.10;;;;;;;;;;5084244;28;20040;-46
2023/09/10 08:30:16;;;;;;;0.10;0.10;;;;;;;;;;5102157;28;20056;-43
2023/09/10 08:32:45;;;;;;;0.10;0.10;;;;;;;;;;5121029;28;20422;-45
2023/09/10 08:35:12;;;;;;;0.10;0.10;;;;;;;;;;5120616;28;20047;-42
2023/09/10 08:37:37;;;;;;;0.10;0.10;;;;;;;;;;5114105;28;20543;-45
2023/09/10 08:40:03;;;;;;;0.10;0.10;;;;;;;;;;5079519;28;20120;-46
2023/09/10 08:42:35;;;;;;;0.20;0.20;;;;;;;;;;5079211;28;20552;-46
2023/09/10 08:45:04;;;;;;;0.10;0.10;;;;;;;;;;5079159;28;20138;-44
2023/09/10 08:47:35;;;;;;;0.10;0.10;;;;;;;;;;5079254;28;20649;-45
2023/09/10 08:50:05;;;;;;;0.10;0.10;;;;;;;;;;5089805;28;20055;-45
2023/09/10 08:52:32;;;;;;;0.10;0.10;;;;;;;;;;5099375;28;20155;-43
2023/09/10 08:54:57;;;;;;;0.10;0.10;;;;;;;;;;5099313;28;20435;-44
2023/09/10 08:57:23;;;;;;;0.10;0.10;;;;;;;;;;5094123;28;20488;-42
2023/09/10 08:59:50;;;;;;;0.10;0.10;;;;;;;;;;5099274;28;20055;-45
2023/09/10 09:02:16;;;;;;;0.10;0.10;;;;;;;;;;5100087;28;20075;-42
2023/09/10 09:04:42;;;;;;;0.10;0.10;;;;;;;;;;5099172;28;20437;-44
2023/09/10 09:07:11;;;;;;;0.10;0.10;;;;;;;;;;5098926;28;20040;-44
2023/09/10 09:09:39;;;;;;;0.10;0.10;;;;;;;;;;5082662;28;20147;-45
2023/09/10 09:12:06;;;;;;;0.10;0.10;;;;;;;;;;5098334;28;20044;-44
2023/09/10 09:14:32;;;;;;;0.10;0.10;;;;;;;;;;5098921;28;20039;-44
2023/09/10 09:16:57;;;;;;;0.10;0.10;;;;;;;;;;5099112;28;20109;-44
2023/09/10 09:19:25;;;;;;;0.10;0.10;;;;;;;;;;5081022;28;20052;-44
2023/09/10 09:21:51;;;;;;;0.10;0.10;;;;;;;;;;5078565;28;20066;-44
2023/09/10 09:24:17;;;;;;;0.10;0.10;;;;;;;;;;5078240;28;20052;-43
2023/09/10 09:26:43;;;;;;;0.15;0.15;;;;;;;;;;5081379;28;20062;-43
2023/09/10 09:29:09;;;;;;;0.10;0.10;;;;;;;;;;5098162;28;20435;-43
2023/09/10 09:31:35;;;;;;;0.10;0.10;;;;;;;;;;5098504;28;20047;-46
2023/09/10 09:34:00;;;;;;;0.10;0.10;;;;;;;;;;5098412;28;20047;-44
2023/09/10 09:36:27;;;;;;;0.10;0.10;;;;;;;;;;5098606;28;20044;-43
2023/09/10 09:38:54;;;;;;;0.10;0.10;;;;;;;;;;5098241;28;20171;-43
2023/09/10 09:41:20;;;;;;;0.10;0.10;;;;;;;;;;5097979;28;20407;-45
2023/09/10 09:43:45;;;;;;;0.10;0.10;;;;;;;;;;5098637;28;20499;-45
2023/09/10 09:46:11;;;;;;;0.10;0.10;;;;;;;;;;5080101;28;20044;-44
2023/09/10 09:48:37;;;;;;;0.10;0.10;;;;;;;;;;5098274;28;20476;-43
2023/09/10 09:51:05;;;;;;;0.10;0.10;;;;;;;;;;5098221;28;20071;-43
2023/09/10 09:53:31;;;;;;;0.10;0.10;;;;;;;;;;5097902;28;20059;-43
2023/09/10 09:55:59;;;;;;;0.10;0.10;;;;;;;;;;5097926;28;20048;-43
2023/09/10 09:58:25;;;;;;;0.10;0.10;;;;;;;;;;5086487;28;20079;-44
2023/09/10 10:00:51;;;;;;;0.10;0.10;;;;;;;;;;5098596;28;20079;-44
2023/09/10 10:03:18;;;;;;;0.10;0.10;;;;;;;;;;5097840;28;20055;-42
2023/09/10 10:05:43;;;;;;;0.10;0.10;;;;;;;;;;5097901;28;20057;-44
2023/09/10 10:08:11;;;;;;;0.10;0.10;;;;;;;;;;5089858;28;20052;-43
2023/09/10 10:10:44;;;;;;;0.10;0.10;;;;;;;;;;5077714;28;20080;-44
2023/09/10 10:13:10;;;;;;;0.10;0.10;;;;;;;;;;5096646;28;20062;-45
2023/09/10 10:15:36;;;;;;;0.10;0.10;;;;;;;;;;5097130;28;20043;-43
2023/09/10 10:18:02;;;;;;;0.10;0.10;;;;;;;;;;5097926;28;20071;-45
2023/09/10 10:20:28;;;;;;;0.10;0.10;;;;;;;;;;5098567;28;20427;-42
2023/09/10 10:22:54;;;;;;;0.10;0.10;;;;;;;;;;5097720;28;20142;-44
2023/09/10 10:25:20;;;;;;;0.10;0.10;;;;;;;;;;5098445;28;20624;-43
2023/09/10 10:27:47;;;;;;;0.10;0.10;;;;;;;;;;5088933;28;20158;-43
2023/09/10 10:30:12;;;;;;;0.10;0.10;;;;;;;;;;5098128;28;20472;-43
2023/09/10 10:32:39;;;;;;;0.10;0.10;;;;;;;;;;5117629;28;20108;-44
2023/09/10 10:35:05;;;;;;;0.10;0.10;;;;;;;;;;5100273;28;20066;-47
2023/09/10 10:37:35;;;;;;;0.20;0.20;;;;;;;;;;5094620;28;20051;-45
2023/09/10 10:40:08;;;;;;;0.20;0.20;;;;;;;;;;5076401;28;20676;-44
2023/09/10 10:42:51;;;;;;;0.10;0.10;;;;;;;;;;5076935;28;20435;-45
2023/09/10 10:45:17;;;;;;;0.10;0.10;;;;;;;;;;5077560;28;20051;-42
2023/09/10 10:47:45;;;;;;;0.10;0.10;;;;;;;;;;5076374;28;20075;-43
2023/09/10 10:50:11;;;;;;;0.20;0.20;;;;;;;;;;5077081;28;20048;-44
2023/09/10 10:52:43;;;;;;;0.10;0.10;;;;;;;;;;5090330;28;20462;-44
2023/09/10 10:55:09;;;;;;;0.10;0.10;;;;;;;;;;5078642;28;20533;-42
2023/09/10 10:57:35;;;;;;;0.10;0.10;;;;;;;;;;5096306;28;20047;-44
2023/09/10 11:00:03;;;;;;;0.10;0.10;;;;;;;;;;5096859;28;20090;-43
2023/09/10 11:02:28;;;;;;;0.20;0.20;;;;;;;;;;5096985;28;20043;-46
2023/09/10 11:04:55;;;;;;;0.10;0.10;;;;;;;;;;5096465;28;20474;-43
2023/09/10 11:07:22;;;;;;;0.10;0.10;;;;;;;;;;5096452;28;20054;-44
2023/09/10 11:09:47;;;;;;;0.10;0.10;;;;;;;;;;5078872;28;20044;-43
2023/09/10 11:12:13;;;;;;;0.10;0.10;;;;;;;;;;5096605;28;20488;-44
2023/09/10 11:14:59;;;;;;;0.10;0.10;;;;;;;;;;5096886;28;20057;-43
2023/09/10 11:17:25;;;;;;;0.10;0.10;;;;;;;;;;5092812;28;20051;-44
2023/09/10 11:19:51;;;;;;;0.10;0.10;;;;;;;;;;5076210;28;20167;-46
2023/09/10 11:22:17;;;;;;;0.10;0.10;;;;;;;;;;5075979;28;20516;-42
2023/09/10 11:24:42;;;;;;;0.10;0.10;;;;;;;;;;5076900;28;20067;-43
2023/09/10 11:27:24;;;;;;;0.10;0.10;;;;;;;;;;5083398;28;20039;-43
2023/09/10 11:30:05;;;;;;;0.10;0.10;;;;;;;;;;5076206;28;20078;-45
2023/09/10 11:32:31;;;;;;;0.10;0.10;;;;;;;;;;5077000;28;20469;-42
2023/09/10 11:35:16;;;;;;;0.10;0.10;;;;;;;;;;5077357;28;20108;-44
2023/09/10 11:37:45;;;;;;;0.10;0.10;;;;;;;;;;5090894;28;20052;-43
2023/09/10 11:40:12;;;;;;;;;;;;;;;;;;5077067;28;20048;-44
2023/09/10 11:42:38;;;;;;;0.10;0.10;;;;;;;;;;5076332;28;19919;-42
2023/09/10 11:45:04;;;;;;;0.20;0.20;;;;;;;;;;5076635;28;20587;-44
2023/09/10 11:47:30;;;;;;;0.10;0.10;;;;;;;;;;5076309;28;20121;-43
2023/09/10 11:50:03;;;;;;;0.10;0.10;;;;;;;;;;5076902;28;20052;-43
2023/09/10 11:52:29;;;;;;;0.10;0.10;;;;;;;;;;5058596;28;20427;-44
2023/09/10 11:54:56;;;;;;;0.10;0.10;;;;;;;;;;5076717;28;20235;-44
2023/09/10 11:57:22;;;;;;;0.10;0.10;;;;;;;;;;5084681;28;20527;-45
2023/09/10 11:59:51;;;;;;;0.10;0.10;;;;;;;;;;5077202;28;20038;-44
2023/09/10 12:02:17;;;;;;;0.10;0.10;;;;;;;;;;5076711;28;20052;-46
2023/09/10 12:04:42;;;;;;;0.10;0.10;;;;;;;;;;5076632;28;20051;-42
2023/09/10 12:07:08;;;;;;;0.10;0.10;;;;;;;;;;5076297;28;20043;-43
2023/09/10 12:09:33;;;;;;;0.10;0.10;;;;;;;;;;5057982;28;20144;-42
2023/09/10 12:12:03;;;;;;;0.10;0.10;;;;;;;;;;5075885;28;20074;-43
2023/09/10 12:14:28;;;;;;;0.10;0.10;;;;;;;;;;5076853;28;20496;-43
2023/09/10 12:16:54;;;;;;;0.10;0.10;;;;;;;;;;5095685;28;20074;-43
2023/09/10 12:19:20;;;;;;;0.10;0.10;;;;;;;;;;5096513;28;20116;-44
2023/09/10 12:21:46;;;;;;;0.10;0.10;;;;;;;;;;5097257;28;20043;-44
2023/09/10 12:24:11;;;;;;;0.10;0.10;;;;;;;;;;5097351;28;20457;-45
2023/09/10 12:26:37;;;;;;;0.10;0.10;;;;;;;;;;5094338;28;20534;-44
2023/09/10 12:29:03;;;;;;;0.20;0.20;;;;;;;;;;5090983;28;20055;-43
2023/09/10 12:31:29;;;;;;;0.10;0.10;;;;;;;;;;5109132;27;20058;-44
2023/09/10 12:33:55;;;;;;;0.10;0.10;;;;;;;;;;5120632;28;20126;-43
2023/09/10 12:36:21;;;;;;;0.10;0.10;;;;;;;;;;5120928;28;20043;-44
2023/09/10 12:38:47;;;;;;;0.10;0.10;;;;;;;;;;5100271;28;20039;-43
2023/09/10 12:41:14;;;;;;;0.10;0.10;;;;;;;;;;5099572;28;20148;-43
2023/09/10 12:43:40;;;;;;;0.10;0.10;;;;;;;;;;5099739;28;20299;-44
2023/09/10 12:46:05;;;;;;;0.10;0.10;;;;;;;;;;5100083;28;20598;-43
2023/09/10 12:48:31;;;;;;;0.10;0.10;;;;;;;;;;5098355;28;20205;-45
2023/09/10 12:50:57;;;;;;;0.15;0.15;;;;;;;;;;5099666;28;20044;-43
2023/09/10 12:53:23;;;;;;;0.10;0.10;;;;;;;;;;5099750;28;20052;-42
2023/09/10 12:55:51;;;;;;;0.10;0.10;;;;;;;;;;5099914;28;20179;-46
2023/09/10 12:58:17;;;;;;;0.10;0.10;;;;;;;;;;5072164;28;20105;-44
2023/09/10 13:00:52;;;;;;;0.10;0.10;;;;;;;;;;5078654;28;20060;-44
2023/09/10 13:03:18;;;;;;;0.10;0.10;;;;;;;;;;5060364;28;20044;-43
2023/09/10 13:05:44;;;;;;;0.10;0.10;;;;;;;;;;5077985;28;20051;-43
2023/09/10 13:08:09;;;;;;;0.10;0.10;;;;;;;;;;5077938;28;20048;-44
2023/09/10 13:10:35;;;;;;;0.10;0.10;;;;;;;;;;5078418;28;20413;-44
2023/09/10 13:13:00;;;;;;;0.10;0.10;;;;;;;;;;5078324;28;20048;-42
2023/09/10 13:15:26;;;;;;;0.10;0.10;;;;;;;;;;5078608;28;20040;-45
2023/09/10 13:17:51;;;;;;;0.10;0.10;;;;;;;;;;5087808;28;20060;-45
2023/09/10 13:20:18;;;;;;;0.10;0.10;;;;;;;;;;5097798;28;20558;-43
2023/09/10 13:22:44;;;;;;;0.15;0.15;;;;;;;;;;5098644;28;20108;-43
2023/09/10 13:25:09;;;;;;;0.10;0.10;;;;;;;;;;5098682;28;20151;-44
2023/09/10 13:27:35;;;;;;;0.10;0.10;;;;;;;;;;5104206;28;20042;-43
2023/09/10 13:30:00;;;;;;;0.10;0.10;;;;;;;;;;5078339;28;20434;-44
2023/09/10 13:32:26;;;;;;;0.10;0.10;;;;;;;;;;5098112;28;20134;-44
2023/09/10 13:34:52;;;;;;;0.10;0.10;;;;;;;;;;5098781;28;20062;-46
2023/09/10 13:37:17;;;;;;;0.10;0.10;;;;;;;;;;5098016;28;20504;-43
2023/09/10 13:39:43;;;;;;;0.10;0.10;;;;;;;;;;5097773;28;20051;-42
2023/09/10 13:42:08;;;;;;;0.10;0.10;;;;;;;;;;5098115;28;20054;-44
2023/09/10 13:44:34;;;;;;;0.10;0.10;;;;;;;;;;5097319;28;20104;-43
2023/09/10 13:46:59;;;;;;;0.10;0.10;;;;;;;;;;5098639;28;20100;-45
2023/09/10 13:49:25;;;;;;;0.10;0.10;;;;;;;;;;5079851;28;20078;-44
2023/09/10 13:51:53;;;;;;;0.10;0.10;;;;;;;;;;5077837;28;20408;-43
2023/09/10 13:54:18;;;;;;;0.10;0.10;;;;;;;;;;5078349;28;20127;-46
2023/09/10 13:56:44;;;;;;;0.10;0.10;;;;;;;;;;5090611;28;20545;-45
2023/09/10 13:59:09;;;;;;;0.10;0.10;;;;;;;;;;5086174;28;20081;-44
2023/09/10 14:01:35;;;;;;;0.10;0.10;;;;;;;;;;5078098;28;20051;-46
2023/09/10 14:04:00;;;;;;;0.10;0.10;;;;;;;;;;5077641;28;20078;-44
2023/09/10 14:06:26;;;;;;;0.10;0.10;;;;;;;;;;5077289;28;20452;-43
2023/09/10 14:08:52;;;;;;;0.10;0.10;;;;;;;;;;5090274;28;20051;-42
2023/09/10 14:11:18;;;;;;;0.10;0.10;;;;;;;;;;5097397;28;20048;-45
2023/09/10 14:13:43;;;;;;;0.10;0.10;;;;;;;;;;5078321;28;20079;-44
2023/09/10 14:16:09;;;;;;;0.20;0.20;;;;;;;;;;5077207;28;20077;-42
2023/09/10 14:18:37;;;;;;;0.10;0.10;;;;;;;;;;5087957;28;20059;-44
2023/09/10 14:21:03;;;;;;;0.10;0.10;;;;;;;;;;5091035;28;20048;-45
2023/09/10 14:23:30;;;;;;;0.10;0.10;;;;;;;;;;5097508;28;20100;-44
2023/09/10 14:25:56;;;;;;;0.10;0.10;;;;;;;;;;5097791;28;20504;-47
2023/09/10 14:28:22;;;;;;;0.10;0.10;;;;;;;;;;5071051;28;20065;-43
2023/09/10 14:30:47;;;;;;;0.10;0.10;;;;;;;;;;5103956;28;20217;-43
2023/09/10 14:33:13;;;;;;;0.10;0.10;;;;;;;;;;5117705;28;20063;-43
2023/09/10 14:35:39;;;;;;;0.10;0.10;;;;;;;;;;5118270;28;20047;-44
2023/09/10 14:38:05;;;;;;;0.10;0.10;;;;;;;;;;5104153;28;20290;-45